sensor_id;sensor_type;location;lat;lon;timestamp;pressure;altitude;pressure_sealevel;temperature;humidity
58662;BME280;44432;49.786;22.760;2023-07-08T00:00:38;99865.05;;;14.55;80.45
58662;BME280;44432;49.786;22.760;2023-07-08T00:03:28;99866.63;;;14.52;80.53
58662;BME280;44432;49.786;22.760;2023-07-08T00:05:59;99867.80;;;14.49;80.59
58662;BME280;44432;49.786;22.760;2023-07-08T00:08:30;99868.33;;;14.46;80.80
58662;BME280;44432;49.786;22.760;2023-07-08T00:11:01;99869.45;;;14.45;80.63
58662;BME280;44432;49.786;22.760;2023-07-08T00:13:31;99866.44;;;14.42;80.85
58662;BME280;44432;49.786;22.760;2023-07-08T00:16:02;99867.23;;;14.40;80.90
58662;BME280;44432;49.786;22.760;2023-07-08T00:18:32;99863.69;;;14.37;80.87
58662;BME280;44432;49.786;22.760;2023-07-08T00:21:04;99868.95;;;14.35;81.12
58662;BME280;44432;49.786;22.760;2023-07-08T00:23:38;99868.61;;;14.33;81.09
58662;BME280;44432;49.786;22.760;2023-07-08T00:26:13;99866.23;;;14.30;81.21
58662;BME280;44432;49.786;22.760;2023-07-08T00:28:45;99867.59;;;14.29;81.19
58662;BME280;44432;49.786;22.760;2023-07-08T00:31:16;99865.34;;;14.26;81.27
58662;BME280;44432;49.786;22.760;2023-07-08T00:33:53;99867.56;;;14.25;81.39
58662;BME280;44432;49.786;22.760;2023-07-08T00:36:26;99865.11;;;14.22;81.38
58662;BME280;44432;49.786;22.760;2023-07-08T00:38:57;99863.33;;;14.20;81.65
58662;BME280;44432;49.786;22.760;2023-07-08T00:41:30;99864.98;;;14.18;81.54
58662;BME280;44432;49.786;22.760;2023-07-08T00:44:01;99862.15;;;14.16;81.68
58662;BME280;44432;49.786;22.760;2023-07-08T00:46:45;99862.09;;;14.14;81.71
58662;BME280;44432;49.786;22.760;2023-07-08T00:49:26;99863.45;;;14.12;81.87
58662;BME280;44432;49.786;22.760;2023-07-08T00:52:19;99862.30;;;14.10;81.92
58662;BME280;44432;49.786;22.760;2023-07-08T00:54:52;99864.00;;;14.07;82.02
58662;BME280;44432;49.786;22.760;2023-07-08T00:57:22;99869.96;;;14.06;82.11
58662;BME280;44432;49.786;22.760;2023-07-08T00:59:57;99865.19;;;14.03;82.10
58662;BME280;44432;49.786;22.760;2023-07-08T01:02:29;99866.10;;;14.01;82.13
58662;BME280;44432;49.786;22.760;2023-07-08T01:05:06;99865.41;;;14.00;82.31
58662;BME280;44432;49.786;22.760;2023-07-08T01:07:40;99865.73;;;13.97;82.19
58662;BME280;44432;49.786;22.760;2023-07-08T01:10:20;99865.34;;;13.95;82.24
58662;BME280;44432;49.786;22.760;2023-07-08T01:12:57;99866.04;;;13.91;82.31
58662;BME280;44432;49.786;22.760;2023-07-08T01:15:33;99866.30;;;13.89;82.34
58662;BME280;44432;49.786;22.760;2023-07-08T01:18:05;99864.34;;;13.86;82.44
58662;BME280;44432;49.786;22.760;2023-07-08T01:20:37;99866.49;;;13.83;82.42
58662;BME280;44432;49.786;22.760;2023-07-08T01:23:08;99863.20;;;13.78;82.38
58662;BME280;44432;49.786;22.760;2023-07-08T01:25:41;99861.61;;;13.72;82.63
58662;BME280;44432;49.786;22.760;2023-07-08T01:28:12;99862.10;;;13.68;82.75
58662;BME280;44432;49.786;22.760;2023-07-08T01:30:44;99864.49;;;13.65;82.92
58662;BME280;44432;49.786;22.760;2023-07-08T01:33:18;99865.18;;;13.61;82.95
58662;BME280;44432;49.786;22.760;2023-07-08T01:35:51;99869.97;;;13.60;83.07
58662;BME280;44432;49.786;22.760;2023-07-08T01:38:25;99869.29;;;13.59;83.26
58662;BME280;44432;49.786;22.760;2023-07-08T01:40:58;99865.63;;;13.57;83.29
58662;BME280;44432;49.786;22.760;2023-07-08T01:43:29;99870.73;;;13.56;83.35
58662;BME280;44432;49.786;22.760;2023-07-08T01:46:02;99871.52;;;13.54;83.30
58662;BME280;44432;49.786;22.760;2023-07-08T01:48:33;99870.98;;;13.52;83.43
58662;BME280;44432;49.786;22.760;2023-07-08T01:51:08;99868.95;;;13.48;83.65
58662;BME280;44432;49.786;22.760;2023-07-08T01:53:40;99876.27;;;13.47;83.68
58662;BME280;44432;49.786;22.760;2023-07-08T01:56:12;99881.91;;;13.46;83.66
58662;BME280;44432;49.786;22.760;2023-07-08T01:58:44;99882.95;;;13.44;83.52
58662;BME280;44432;49.786;22.760;2023-07-08T02:01:14;99884.68;;;13.41;83.61
58662;BME280;44432;49.786;22.760;2023-07-08T02:03:45;99885.38;;;13.40;83.68
58662;BME280;44432;49.786;22.760;2023-07-08T02:06:16;99885.02;;;13.39;83.58
58662;BME280;44432;49.786;22.760;2023-07-08T02:08:46;99887.08;;;13.36;83.71
58662;BME280;44432;49.786;22.760;2023-07-08T02:11:17;99887.30;;;13.34;83.70
58662;BME280;44432;49.786;22.760;2023-07-08T02:13:48;99885.98;;;13.31;83.69
58662;BME280;44432;49.786;22.760;2023-07-08T02:16:18;99884.02;;;13.26;83.74
58662;BME280;44432;49.786;22.760;2023-07-08T02:18:49;99883.39;;;13.20;83.66
58662;BME280;44432;49.786;22.760;2023-07-08T02:21:19;99885.05;;;13.16;83.94
58662;BME280;44432;49.786;22.760;2023-07-08T02:23:50;99885.98;;;13.13;84.09
58662;BME280;44432;49.786;22.760;2023-07-08T02:26:22;99885.63;;;13.12;84.27
58662;BME280;44432;49.786;22.760;2023-07-08T02:28:53;99886.70;;;13.10;84.36
58662;BME280;44432;49.786;22.760;2023-07-08T02:31:23;99890.20;;;13.09;84.61
58662;BME280;44432;49.786;22.760;2023-07-08T02:33:54;99894.20;;;13.10;84.53
58662;BME280;44432;49.786;22.760;2023-07-08T02:36:25;99897.63;;;13.09;84.74
58662;BME280;44432;49.786;22.760;2023-07-08T02:38:56;99895.89;;;13.08;84.62
58662;BME280;44432;49.786;22.760;2023-07-08T02:41:27;99900.72;;;13.05;84.73
58662;BME280;44432;49.786;22.760;2023-07-08T02:43:57;99898.59;;;13.05;84.64
58662;BME280;44432;49.786;22.760;2023-07-08T02:46:28;99901.88;;;13.03;84.80
58662;BME280;44432;49.786;22.760;2023-07-08T02:48:58;99903.08;;;13.04;84.72
58662;BME280;44432;49.786;22.760;2023-07-08T02:51:29;99906.23;;;13.05;84.87
58662;BME280;44432;49.786;22.760;2023-07-08T02:54:00;99905.11;;;13.05;84.92
58662;BME280;44432;49.786;22.760;2023-07-08T02:56:30;99907.20;;;13.05;85.00
58662;BME280;44432;49.786;22.760;2023-07-08T02:59:01;99905.36;;;13.06;85.02
58662;BME280;44432;49.786;22.760;2023-07-08T03:01:32;99909.07;;;13.06;84.98
58662;BME280;44432;49.786;22.760;2023-07-08T03:04:03;99906.67;;;13.05;84.85
58662;BME280;44432;49.786;22.760;2023-07-08T03:06:35;99906.99;;;13.05;84.93
58662;BME280;44432;49.786;22.760;2023-07-08T03:09:06;99913.03;;;13.05;84.91
58662;BME280;44432;49.786;22.760;2023-07-08T03:11:37;99912.90;;;13.06;85.04
58662;BME280;44432;49.786;22.760;2023-07-08T03:14:09;99916.60;;;13.07;85.05
58662;BME280;44432;49.786;22.760;2023-07-08T03:16:40;99922.50;;;13.12;84.97
58662;BME280;44432;49.786;22.760;2023-07-08T03:19:12;99923.90;;;13.15;84.91
58662;BME280;44432;49.786;22.760;2023-07-08T03:21:44;99927.76;;;13.17;84.89
58662;BME280;44432;49.786;22.760;2023-07-08T03:24:15;99929.02;;;13.18;84.61
58662;BME280;44432;49.786;22.760;2023-07-08T03:26:47;99930.02;;;13.21;84.99
58662;BME280;44432;49.786;22.760;2023-07-08T03:29:21;99929.27;;;13.23;84.74
58662;BME280;44432;49.786;22.760;2023-07-08T03:31:52;99924.61;;;13.25;84.70
58662;BME280;44432;49.786;22.760;2023-07-08T03:34:22;99921.45;;;13.27;84.80
58662;BME280;44432;49.786;22.760;2023-07-08T03:36:53;99921.27;;;13.30;84.60
58662;BME280;44432;49.786;22.760;2023-07-08T03:39:25;99921.21;;;13.32;84.52
58662;BME280;44432;49.786;22.760;2023-07-08T03:41:56;99921.95;;;13.31;84.55
58662;BME280;44432;49.786;22.760;2023-07-08T03:44:26;99926.32;;;13.32;84.53
58662;BME280;44432;49.786;22.760;2023-07-08T03:46:57;99927.94;;;13.34;84.65
58662;BME280;44432;49.786;22.760;2023-07-08T03:49:28;99932.29;;;13.36;84.57
58662;BME280;44432;49.786;22.760;2023-07-08T03:51:58;99935.49;;;13.38;84.62
58662;BME280;44432;49.786;22.760;2023-07-08T03:54:29;99934.24;;;13.42;84.58
58662;BME280;44432;49.786;22.760;2023-07-08T03:56:59;99939.52;;;13.46;84.54
58662;BME280;44432;49.786;22.760;2023-07-08T03:59:30;99938.67;;;13.51;84.51
58662;BME280;44432;49.786;22.760;2023-07-08T04:02:01;99937.88;;;13.55;84.66
58662;BME280;44432;49.786;22.760;2023-07-08T04:04:32;99936.98;;;13.60;84.32
58662;BME280;44432;49.786;22.760;2023-07-08T04:07:04;99935.02;;;13.65;84.36
58662;BME280;44432;49.786;22.760;2023-07-08T04:09:35;99932.46;;;13.69;84.31
58662;BME280;44432;49.786;22.760;2023-07-08T04:12:07;99935.11;;;13.74;84.13
58662;BME280;44432;49.786;22.760;2023-07-08T04:14:38;99939.54;;;13.79;84.16
58662;BME280;44432;49.786;22.760;2023-07-08T04:17:12;99938.95;;;13.85;84.25
58662;BME280;44432;49.786;22.760;2023-07-08T04:19:43;99939.86;;;13.92;84.11
58662;BME280;44432;49.786;22.760;2023-07-08T04:22:14;99940.69;;;14.00;84.12
58662;BME280;44432;49.786;22.760;2023-07-08T04:24:44;99943.92;;;14.08;84.12
58662;BME280;44432;49.786;22.760;2023-07-08T04:27:17;99942.41;;;14.18;84.01
58662;BME280;44432;49.786;22.760;2023-07-08T04:29:48;99948.58;;;14.25;83.84
58662;BME280;44432;49.786;22.760;2023-07-08T04:32:18;99947.65;;;14.33;83.83
58662;BME280;44432;49.786;22.760;2023-07-08T04:34:49;99952.69;;;14.41;83.80
58662;BME280;44432;49.786;22.760;2023-07-08T04:37:20;99954.83;;;14.48;83.69
58662;BME280;44432;49.786;22.760;2023-07-08T04:39:50;99952.37;;;14.55;83.53
58662;BME280;44432;49.786;22.760;2023-07-08T04:42:21;99948.80;;;14.61;83.41
58662;BME280;44432;49.786;22.760;2023-07-08T04:44:52;99942.77;;;14.66;83.22
58662;BME280;44432;49.786;22.760;2023-07-08T04:47:23;99948.13;;;14.71;83.27
58662;BME280;44432;49.786;22.760;2023-07-08T04:49:58;99947.54;;;14.79;83.24
58662;BME280;44432;49.786;22.760;2023-07-08T04:52:29;99950.42;;;14.87;83.16
58662;BME280;44432;49.786;22.760;2023-07-08T04:54:59;99950.33;;;14.95;83.22
58662;BME280;44432;49.786;22.760;2023-07-08T04:57:30;99950.85;;;15.02;83.12
58662;BME280;44432;49.786;22.760;2023-07-08T05:00:00;99950.30;;;15.09;82.85
58662;BME280;44432;49.786;22.760;2023-07-08T05:02:31;99953.40;;;15.16;82.89
58662;BME280;44432;49.786;22.760;2023-07-08T05:05:02;99949.73;;;15.24;82.93
58662;BME280;44432;49.786;22.760;2023-07-08T05:07:33;99950.10;;;15.32;82.79
58662;BME280;44432;49.786;22.760;2023-07-08T05:10:04;99948.45;;;15.38;82.64
58662;BME280;44432;49.786;22.760;2023-07-08T05:12:35;99950.63;;;15.47;82.61
58662;BME280;44432;49.786;22.760;2023-07-08T05:15:08;99958.35;;;15.53;82.65
58662;BME280;44432;49.786;22.760;2023-07-08T05:17:40;99958.80;;;15.59;82.43
58662;BME280;44432;49.786;22.760;2023-07-08T05:20:14;99959.71;;;15.67;82.39
58662;BME280;44432;49.786;22.760;2023-07-08T05:22:45;99958.13;;;15.75;82.21
58662;BME280;44432;49.786;22.760;2023-07-08T05:25:17;99954.59;;;15.82;82.25
58662;BME280;44432;49.786;22.760;2023-07-08T05:27:48;99950.61;;;15.89;82.20
58662;BME280;44432;49.786;22.760;2023-07-08T05:30:19;99948.67;;;15.97;82.10
58662;BME280;44432;49.786;22.760;2023-07-08T05:32:50;99946.54;;;16.07;82.07
58662;BME280;44432;49.786;22.760;2023-07-08T05:35:20;99946.45;;;16.17;81.84
58662;BME280;44432;49.786;22.760;2023-07-08T05:37:51;99945.23;;;16.26;81.73
58662;BME280;44432;49.786;22.760;2023-07-08T05:40:22;99945.71;;;16.36;81.57
58662;BME280;44432;49.786;22.760;2023-07-08T05:42:52;99948.46;;;16.48;81.45
58662;BME280;44432;49.786;22.760;2023-07-08T05:45:23;99949.14;;;16.57;81.33
58662;BME280;44432;49.786;22.760;2023-07-08T05:47:54;99944.09;;;16.68;81.14
58662;BME280;44432;49.786;22.760;2023-07-08T05:50:25;99940.44;;;16.78;80.91
58662;BME280;44432;49.786;22.760;2023-07-08T05:52:55;99939.39;;;16.87;80.80
58662;BME280;44432;49.786;22.760;2023-07-08T05:55:26;99938.63;;;16.97;80.58
58662;BME280;44432;49.786;22.760;2023-07-08T05:57:57;99939.50;;;17.09;80.43
58662;BME280;44432;49.786;22.760;2023-07-08T06:00:27;99939.91;;;17.20;80.11
58662;BME280;44432;49.786;22.760;2023-07-08T06:02:58;99938.20;;;17.31;79.87
58662;BME280;44432;49.786;22.760;2023-07-08T06:05:28;99937.63;;;17.45;79.48
58662;BME280;44432;49.786;22.760;2023-07-08T06:07:59;99936.98;;;17.57;79.02
58662;BME280;44432;49.786;22.760;2023-07-08T06:10:30;99934.86;;;17.71;78.52
58662;BME280;44432;49.786;22.760;2023-07-08T06:13:00;99930.14;;;17.83;78.24
58662;BME280;44432;49.786;22.760;2023-07-08T06:15:31;99930.72;;;17.96;77.89
58662;BME280;44432;49.786;22.760;2023-07-08T06:18:02;99929.09;;;18.10;77.45
58662;BME280;44432;49.786;22.760;2023-07-08T06:20:32;99923.81;;;18.22;76.67
58662;BME280;44432;49.786;22.760;2023-07-08T06:23:03;99920.39;;;18.34;76.37
58662;BME280;44432;49.786;22.760;2023-07-08T06:25:34;99918.81;;;18.48;76.02
58662;BME280;44432;49.786;22.760;2023-07-08T06:28:05;99918.05;;;18.63;75.56
58662;BME280;44432;49.786;22.760;2023-07-08T06:30:35;99922.97;;;18.78;75.03
58662;BME280;44432;49.786;22.760;2023-07-08T06:33:06;99919.86;;;18.93;74.48
58662;BME280;44432;49.786;22.760;2023-07-08T06:35:37;99917.23;;;19.08;74.02
58662;BME280;44432;49.786;22.760;2023-07-08T06:38:08;99913.79;;;19.21;72.38
58662;BME280;44432;49.786;22.760;2023-07-08T06:40:39;99905.35;;;19.29;71.32
58662;BME280;44432;49.786;22.760;2023-07-08T06:43:10;99906.03;;;19.40;70.91
58662;BME280;44432;49.786;22.760;2023-07-08T06:45:41;99900.14;;;19.50;70.28
58662;BME280;44432;49.786;22.760;2023-07-08T06:48:13;99898.37;;;19.62;69.43
58662;BME280;44432;49.786;22.760;2023-07-08T06:50:47;99896.56;;;19.74;69.00
58662;BME280;44432;49.786;22.760;2023-07-08T06:53:17;99895.57;;;19.87;68.68
58662;BME280;44432;49.786;22.760;2023-07-08T06:55:49;99891.52;;;20.01;67.98
58662;BME280;44432;49.786;22.760;2023-07-08T06:58:19;99889.11;;;20.10;66.69
58662;BME280;44432;49.786;22.760;2023-07-08T07:00:50;99888.04;;;20.20;66.05
58662;BME280;44432;49.786;22.760;2023-07-08T07:03:21;99891.61;;;20.27;65.13
58662;BME280;44432;49.786;22.760;2023-07-08T07:05:52;99892.02;;;20.33;64.46
58662;BME280;44432;49.786;22.760;2023-07-08T07:08:22;99894.17;;;20.41;64.32
58662;BME280;44432;49.786;22.760;2023-07-08T07:10:53;99895.61;;;20.50;63.56
58662;BME280;44432;49.786;22.760;2023-07-08T07:13:24;99889.91;;;20.61;63.70
58662;BME280;44432;49.786;22.760;2023-07-08T07:15:55;99894.89;;;20.76;63.58
58662;BME280;44432;49.786;22.760;2023-07-08T07:18:26;99888.52;;;20.88;62.66
58662;BME280;44432;49.786;22.760;2023-07-08T07:20:58;99888.75;;;20.96;62.13
58662;BME280;44432;49.786;22.760;2023-07-08T07:23:29;99889.58;;;21.08;61.38
58662;BME280;44432;49.786;22.760;2023-07-08T07:25:59;99888.09;;;21.19;60.46
58662;BME280;44432;49.786;22.760;2023-07-08T07:28:30;99887.59;;;21.28;59.97
58662;BME280;44432;49.786;22.760;2023-07-08T07:31:01;99887.48;;;21.39;59.60
58662;BME280;44432;49.786;22.760;2023-07-08T07:33:32;99889.20;;;21.50;59.20
58662;BME280;44432;49.786;22.760;2023-07-08T07:36:02;99887.10;;;21.59;58.54
58662;BME280;44432;49.786;22.760;2023-07-08T07:38:34;99888.60;;;21.67;57.81
58662;BME280;44432;49.786;22.760;2023-07-08T07:41:05;99888.86;;;21.75;57.76
58662;BME280;44432;49.786;22.760;2023-07-08T07:43:39;99882.65;;;21.82;57.70
58662;BME280;44432;49.786;22.760;2023-07-08T07:46:10;99885.91;;;21.88;57.32
58662;BME280;44432;49.786;22.760;2023-07-08T07:48:41;99882.50;;;21.93;57.20
58662;BME280;44432;49.786;22.760;2023-07-08T07:51:11;99886.27;;;22.00;57.25
58662;BME280;44432;49.786;22.760;2023-07-08T07:53:43;99888.86;;;22.07;56.92
58662;BME280;44432;49.786;22.760;2023-07-08T07:56:13;99888.69;;;22.08;56.00
58662;BME280;44432;49.786;22.760;2023-07-08T07:58:44;99884.82;;;22.08;55.90
58662;BME280;44432;49.786;22.760;2023-07-08T08:01:15;99888.07;;;22.16;56.07
58662;BME280;44432;49.786;22.760;2023-07-08T08:03:45;99885.67;;;22.26;55.69
58662;BME280;44432;49.786;22.760;2023-07-08T08:06:16;99887.04;;;22.36;55.40
58662;BME280;44432;49.786;22.760;2023-07-08T08:08:48;99885.55;;;22.47;54.91
58662;BME280;44432;49.786;22.760;2023-07-08T08:11:18;99886.41;;;22.57;54.84
58662;BME280;44432;49.786;22.760;2023-07-08T08:13:49;99888.63;;;22.68;54.58
58662;BME280;44432;49.786;22.760;2023-07-08T08:16:20;99894.45;;;22.79;53.60
58662;BME280;44432;49.786;22.760;2023-07-08T08:18:51;99887.16;;;22.85;52.48
58662;BME280;44432;49.786;22.760;2023-07-08T08:21:21;99883.54;;;22.92;52.67
58662;BME280;44432;49.786;22.760;2023-07-08T08:23:52;99886.05;;;23.01;52.53
58662;BME280;44432;49.786;22.760;2023-07-08T08:26:23;99882.88;;;23.11;52.25
58662;BME280;44432;49.786;22.760;2023-07-08T08:28:53;99879.05;;;23.18;51.46
58662;BME280;44432;49.786;22.760;2023-07-08T08:31:24;99879.40;;;23.22;50.59
58662;BME280;44432;49.786;22.760;2023-07-08T08:33:55;99879.16;;;23.16;49.75
58662;BME280;44432;49.786;22.760;2023-07-08T08:36:25;99876.65;;;23.06;49.29
58662;BME280;44432;49.786;22.760;2023-07-08T08:38:56;99873.04;;;23.00;48.98
58662;BME280;44432;49.786;22.760;2023-07-08T08:41:33;99870.16;;;22.95;49.24
58662;BME280;44432;49.786;22.760;2023-07-08T08:44:08;99868.89;;;22.99;49.56
58662;BME280;44432;49.786;22.760;2023-07-08T08:46:51;99870.10;;;23.11;49.72
58662;BME280;44432;49.786;22.760;2023-07-08T08:49:27;99867.33;;;23.28;50.24
58662;BME280;44432;49.786;22.760;2023-07-08T08:52:00;99867.25;;;23.45;49.80
58662;BME280;44432;49.786;22.760;2023-07-08T08:54:32;99868.30;;;23.63;49.74
58662;BME280;44432;49.786;22.760;2023-07-08T08:57:11;99868.07;;;23.76;48.59
58662;BME280;44432;49.786;22.760;2023-07-08T08:59:47;99869.79;;;23.88;48.12
58662;BME280;44432;49.786;22.760;2023-07-08T09:02:33;99867.49;;;23.98;47.63
58662;BME280;44432;49.786;22.760;2023-07-08T09:05:08;99868.09;;;24.08;47.58
58662;BME280;44432;49.786;22.760;2023-07-08T09:07:44;99869.58;;;24.19;46.87
58662;BME280;44432;49.786;22.760;2023-07-08T09:10:33;99867.81;;;24.29;46.53
58662;BME280;44432;49.786;22.760;2023-07-08T09:13:08;99868.20;;;24.42;45.34
58662;BME280;44432;49.786;22.760;2023-07-08T09:15:42;99873.06;;;24.50;44.12
58662;BME280;44432;49.786;22.760;2023-07-08T09:18:21;99872.78;;;24.47;41.95
58662;BME280;44432;49.786;22.760;2023-07-08T09:20:57;99868.50;;;24.39;41.30
58662;BME280;44432;49.786;22.760;2023-07-08T09:23:32;99865.10;;;24.39;41.78
58662;BME280;44432;49.786;22.760;2023-07-08T09:26:10;99868.45;;;24.47;41.63
58662;BME280;44432;49.786;22.760;2023-07-08T09:28:45;99866.08;;;24.47;40.65
58662;BME280;44432;49.786;22.760;2023-07-08T09:31:23;99868.91;;;24.41;40.36
58662;BME280;44432;49.786;22.760;2023-07-08T09:34:04;99866.09;;;24.28;39.47
58662;BME280;44432;49.786;22.760;2023-07-08T09:36:38;99860.45;;;24.19;40.35
58662;BME280;44432;49.786;22.760;2023-07-08T09:39:11;99863.50;;;24.22;40.33
58662;BME280;44432;49.786;22.760;2023-07-08T09:41:44;99866.33;;;24.27;40.50
58662;BME280;44432;49.786;22.760;2023-07-08T09:44:20;99868.69;;;24.32;40.02
58662;BME280;44432;49.786;22.760;2023-07-08T09:46:52;99867.38;;;24.34;40.03
58662;BME280;44432;49.786;22.760;2023-07-08T09:49:26;99866.52;;;24.42;40.39
58662;BME280;44432;49.786;22.760;2023-07-08T09:51:58;99865.89;;;24.53;40.34
58662;BME280;44432;49.786;22.760;2023-07-08T09:54:28;99868.07;;;24.56;40.02
58662;BME280;44432;49.786;22.760;2023-07-08T09:57:04;99868.23;;;24.57;40.04
58662;BME280;44432;49.786;22.760;2023-07-08T09:59:41;99862.39;;;24.56;39.89
58662;BME280;44432;49.786;22.760;2023-07-08T10:02:28;99857.82;;;24.60;39.86
58662;BME280;44432;49.786;22.760;2023-07-08T10:05:03;99857.90;;;24.65;39.49
58662;BME280;44432;49.786;22.760;2023-07-08T10:07:38;99849.05;;;24.72;39.46
58662;BME280;44432;49.786;22.760;2023-07-08T10:10:12;99850.17;;;24.82;39.74
58662;BME280;44432;49.786;22.760;2023-07-08T10:12:53;99850.60;;;24.92;39.49
58662;BME280;44432;49.786;22.760;2023-07-08T10:15:30;99845.67;;;25.00;39.14
58662;BME280;44432;49.786;22.760;2023-07-08T10:18:03;99844.89;;;25.01;38.69
58662;BME280;44432;49.786;22.760;2023-07-08T10:20:42;99838.26;;;24.97;38.70
58662;BME280;44432;49.786;22.760;2023-07-08T10:23:30;99833.91;;;25.03;39.71
58662;BME280;44432;49.786;22.760;2023-07-08T10:26:10;99836.35;;;25.16;39.54
58662;BME280;44432;49.786;22.760;2023-07-08T10:28:47;99839.34;;;25.27;38.96
58662;BME280;44432;49.786;22.760;2023-07-08T10:31:31;99837.77;;;25.21;37.97
58662;BME280;44432;49.786;22.760;2023-07-08T10:34:17;99838.64;;;25.22;38.37
58662;BME280;44432;49.786;22.760;2023-07-08T10:36:58;99842.61;;;25.26;38.40
58662;BME280;44432;49.786;22.760;2023-07-08T10:39:46;99839.13;;;25.28;38.12
58662;BME280;44432;49.786;22.760;2023-07-08T10:42:38;99833.16;;;25.22;37.94
58662;BME280;44432;49.786;22.760;2023-07-08T10:45:15;99838.59;;;25.21;37.52
58662;BME280;44432;49.786;22.760;2023-07-08T10:47:56;99830.34;;;25.13;37.42
58662;BME280;44432;49.786;22.760;2023-07-08T10:50:54;99825.15;;;25.13;36.98
58662;BME280;44432;49.786;22.760;2023-07-08T10:53:50;99823.14;;;25.21;37.56
58662;BME280;44432;49.786;22.760;2023-07-08T10:56:30;99828.60;;;25.27;36.85
58662;BME280;44432;49.786;22.760;2023-07-08T10:59:23;99825.33;;;25.19;36.46
58662;BME280;44432;49.786;22.760;2023-07-08T11:02:12;99823.80;;;25.17;36.96
58662;BME280;44432;49.786;22.760;2023-07-08T11:04:58;99822.69;;;25.25;37.48
58662;BME280;44432;49.786;22.760;2023-07-08T11:07:39;99813.89;;;25.37;38.26
58662;BME280;44432;49.786;22.760;2023-07-08T11:10:16;99813.75;;;25.51;37.59
58662;BME280;44432;49.786;22.760;2023-07-08T11:12:50;99808.30;;;25.56;36.88
58662;BME280;44432;49.786;22.760;2023-07-08T11:15:25;99807.33;;;25.56;37.21
58662;BME280;44432;49.786;22.760;2023-07-08T11:18:04;99808.50;;;25.64;37.35
58662;BME280;44432;49.786;22.760;2023-07-08T11:20:40;99807.14;;;25.70;37.03
58662;BME280;44432;49.786;22.760;2023-07-08T11:23:19;99800.60;;;25.76;37.04
58662;BME280;44432;49.786;22.760;2023-07-08T11:25:58;99800.83;;;25.73;36.50
58662;BME280;44432;49.786;22.760;2023-07-08T11:28:32;99797.79;;;25.68;36.23
58662;BME280;44432;49.786;22.760;2023-07-08T11:31:05;99799.58;;;25.63;36.17
58662;BME280;44432;49.786;22.760;2023-07-08T11:33:38;99802.25;;;25.59;35.79
58662;BME280;44432;49.786;22.760;2023-07-08T11:36:10;99805.08;;;25.55;35.85
58662;BME280;44432;49.786;22.760;2023-07-08T11:38:49;99802.97;;;25.52;35.91
58662;BME280;44432;49.786;22.760;2023-07-08T11:41:21;99800.87;;;25.57;36.02
58662;BME280;44432;49.786;22.760;2023-07-08T11:43:58;99800.98;;;25.59;36.33
58662;BME280;44432;49.786;22.760;2023-07-08T11:46:31;99799.10;;;25.66;36.73
58662;BME280;44432;49.786;22.760;2023-07-08T11:49:06;99798.86;;;25.77;36.29
58662;BME280;44432;49.786;22.760;2023-07-08T11:51:43;99797.38;;;25.84;35.93
58662;BME280;44432;49.786;22.760;2023-07-08T11:54:20;99795.83;;;25.90;35.75
58662;BME280;44432;49.786;22.760;2023-07-08T11:57:03;99796.40;;;25.91;35.21
58662;BME280;44432;49.786;22.760;2023-07-08T11:59:40;99795.52;;;25.93;35.47
58662;BME280;44432;49.786;22.760;2023-07-08T12:02:14;99789.52;;;25.95;35.43
58662;BME280;44432;49.786;22.760;2023-07-08T12:04:58;99789.85;;;26.01;35.46
58662;BME280;44432;49.786;22.760;2023-07-08T12:07:33;99787.33;;;26.11;35.65
58662;BME280;44432;49.786;22.760;2023-07-08T12:10:16;99782.80;;;26.20;35.51
58662;BME280;44432;49.786;22.760;2023-07-08T12:12:47;99779.24;;;26.27;34.98
58662;BME280;44432;49.786;22.760;2023-07-08T12:15:23;99773.77;;;26.17;34.80
58662;BME280;44432;49.786;22.760;2023-07-08T12:17:56;99772.45;;;26.10;35.26
58662;BME280;44432;49.786;22.760;2023-07-08T12:20:29;99771.95;;;26.11;35.57
58662;BME280;44432;49.786;22.760;2023-07-08T12:23:01;99772.88;;;26.13;35.19
58662;BME280;44432;49.786;22.760;2023-07-08T12:25:33;99778.10;;;26.17;35.30
58662;BME280;44432;49.786;22.760;2023-07-08T12:28:05;99767.67;;;26.21;35.52
58662;BME280;44432;49.786;22.760;2023-07-08T12:30:35;99769.59;;;26.31;36.13
58662;BME280;44432;49.786;22.760;2023-07-08T12:33:11;99762.05;;;26.41;35.85
58662;BME280;44432;49.786;22.760;2023-07-08T12:35:44;99761.63;;;26.51;35.78
58662;BME280;44432;49.786;22.760;2023-07-08T12:38:17;99763.88;;;26.54;35.07
58662;BME280;44432;49.786;22.760;2023-07-08T12:40:48;99761.17;;;26.54;34.31
58662;BME280;44432;49.786;22.760;2023-07-08T12:43:20;99754.91;;;26.47;33.73
58662;BME280;44432;49.786;22.760;2023-07-08T12:45:51;99752.49;;;26.41;33.61
58662;BME280;44432;49.786;22.760;2023-07-08T12:48:22;99748.02;;;26.42;34.10
58662;BME280;44432;49.786;22.760;2023-07-08T12:50:53;99748.69;;;26.46;33.84
58662;BME280;44432;49.786;22.760;2023-07-08T12:53:23;99747.67;;;26.43;34.15
58662;BME280;44432;49.786;22.760;2023-07-08T12:55:56;99743.02;;;26.43;34.27
58662;BME280;44432;49.786;22.760;2023-07-08T12:58:29;99745.55;;;26.48;34.59
58662;BME280;44432;49.786;22.760;2023-07-08T13:01:02;99744.17;;;26.59;33.91
58662;BME280;44432;49.786;22.760;2023-07-08T13:03:36;99747.69;;;26.65;34.30
58662;BME280;44432;49.786;22.760;2023-07-08T13:06:10;99748.38;;;26.62;32.72
58662;BME280;44432;49.786;22.760;2023-07-08T13:08:43;99748.20;;;26.53;33.22
58662;BME280;44432;49.786;22.760;2023-07-08T13:11:16;99751.35;;;26.57;33.14
58662;BME280;44432;49.786;22.760;2023-07-08T13:13:50;99747.80;;;26.60;33.10
58662;BME280;44432;49.786;22.760;2023-07-08T13:16:28;99746.17;;;26.66;33.15
58662;BME280;44432;49.786;22.760;2023-07-08T13:19:00;99744.23;;;26.75;33.32
58662;BME280;44432;49.786;22.760;2023-07-08T13:21:33;99739.33;;;26.80;33.25